sensor_id;sensor_type;location;lat;lon;timestamp;P1;durP1;ratioP1;P2;durP2;ratioP2
26690;SDS011;14307;51.718;8.938;2023-04-23T00:02:05;46.95;;;31.10;;
26690;SDS011;14307;51.718;8.938;2023-04-23T00:04:33;51.58;;;32.78;;
26690;SDS011;14307;51.718;8.938;2023-04-23T00:07:04;52.35;;;33.30;;
26690;SDS011;14307;51.718;8.938;2023-04-23T00:09:31;59.63;;;35.05;;
26690;SDS011;14307;51.718;8.938;2023-04-23T00:11:58;54.05;;;34.13;;
26690;SDS011;14307;51.718;8.938;2023-04-23T00:14:27;64.22;;;37.60;;
26690;SDS011;14307;51.718;8.938;2023-04-23T00:16:54;66.63;;;39.90;;
26690;SDS011;14307;51.718;8.938;2023-04-23T00:19:21;74.60;;;41.45;;
26690;SDS011;14307;51.718;8.938;2023-04-23T00:21:47;74.22;;;42.58;;
26690;SDS011;14307;51.718;8.938;2023-04-23T00:24:14;75.25;;;42.58;;
26690;SDS011;14307;51.718;8.938;2023-04-23T00:26:41;78.80;;;44.90;;
26690;SDS011;14307;51.718;8.938;2023-04-23T00:29:08;85.00;;;48.20;;
26690;SDS011;14307;51.718;8.938;2023-04-23T00:31:35;85.53;;;47.17;;
26690;SDS011;14307;51.718;8.938;2023-04-23T00:34:02;95.55;;;53.47;;
26690;SDS011;14307;51.718;8.938;2023-04-23T00:36:28;99.68;;;54.55;;
26690;SDS011;14307;51.718;8.938;2023-04-23T00:38:55;119.40;;;56.45;;
26690;SDS011;14307;51.718;8.938;2023-04-23T00:41:22;115.13;;;56.92;;
26690;SDS011;14307;51.718;8.938;2023-04-23T00:43:49;113.10;;;56.92;;
26690;SDS011;14307;51.718;8.938;2023-04-23T00:46:18;120.07;;;60.17;;
26690;SDS011;14307;51.718;8.938;2023-04-23T00:48:46;113.15;;;59.08;;
26690;SDS011;14307;51.718;8.938;2023-04-23T00:51:13;125.15;;;61.17;;
26690;SDS011;14307;51.718;8.938;2023-04-23T00:53:41;126.85;;;61.03;;
26690;SDS011;14307;51.718;8.938;2023-04-23T00:56:08;119.35;;;61.75;;
26690;SDS011;14307;51.718;8.938;2023-04-23T00:58:36;133.45;;;63.38;;
26690;SDS011;14307;51.718;8.938;2023-04-23T01:01:03;134.98;;;64.38;;
26690;SDS011;14307;51.718;8.938;2023-04-23T01:03:30;137.00;;;65.25;;
26690;SDS011;14307;51.718;8.938;2023-04-23T01:05:59;145.23;;;66.07;;
26690;SDS011;14307;51.718;8.938;2023-04-23T01:08:27;138.75;;;65.32;;
26690;SDS011;14307;51.718;8.938;2023-04-23T01:10:54;142.98;;;67.47;;
26690;SDS011;14307;51.718;8.938;2023-04-23T01:16:01;144.38;;;64.18;;
26690;SDS011;14307;51.718;8.938;2023-04-23T01:18:28;136.05;;;65.15;;
26690;SDS011;14307;51.718;8.938;2023-04-23T01:20:55;155.07;;;66.95;;
26690;SDS011;14307;51.718;8.938;2023-04-23T01:23:22;139.00;;;65.78;;
26690;SDS011;14307;51.718;8.938;2023-04-23T01:25:49;129.25;;;62.70;;
26690;SDS011;14307;51.718;8.938;2023-04-23T01:28:16;143.13;;;65.03;;
26690;SDS011;14307;51.718;8.938;2023-04-23T01:30:42;139.10;;;62.75;;
26690;SDS011;14307;51.718;8.938;2023-04-23T01:33:10;137.70;;;63.95;;
26690;SDS011;14307;51.718;8.938;2023-04-23T01:35:38;133.38;;;63.50;;
26690;SDS011;14307;51.718;8.938;2023-04-23T01:38:07;134.32;;;62.33;;
26690;SDS011;14307;51.718;8.938;2023-04-23T01:40:36;135.88;;;64.10;;
26690;SDS011;14307;51.718;8.938;2023-04-23T01:43:03;134.10;;;63.03;;
26690;SDS011;14307;51.718;8.938;2023-04-23T01:45:31;131.23;;;61.45;;
26690;SDS011;14307;51.718;8.938;2023-04-23T01:48:00;137.82;;;62.20;;
26690;SDS011;14307;51.718;8.938;2023-04-23T01:50:27;151.57;;;65.25;;
26690;SDS011;14307;51.718;8.938;2023-04-23T01:52:55;151.10;;;66.38;;
26690;SDS011;14307;51.718;8.938;2023-04-23T01:55:22;156.02;;;68.28;;
26690;SDS011;14307;51.718;8.938;2023-04-23T01:57:48;153.93;;;66.43;;
26690;SDS011;14307;51.718;8.938;2023-04-23T02:00:16;145.70;;;68.13;;
26690;SDS011;14307;51.718;8.938;2023-04-23T02:02:43;150.32;;;67.05;;
26690;SDS011;14307;51.718;8.938;2023-04-23T02:05:11;165.88;;;72.78;;
26690;SDS011;14307;51.718;8.938;2023-04-23T02:07:40;146.02;;;67.32;;
26690;SDS011;14307;51.718;8.938;2023-04-23T02:10:07;153.40;;;69.10;;
26690;SDS011;14307;51.718;8.938;2023-04-23T02:12:35;184.88;;;78.53;;
26690;SDS011;14307;51.718;8.938;2023-04-23T02:15:02;180.73;;;79.03;;
26690;SDS011;14307;51.718;8.938;2023-04-23T02:17:29;195.07;;;81.57;;
26690;SDS011;14307;51.718;8.938;2023-04-23T02:19:56;210.77;;;86.78;;
26690;SDS011;14307;51.718;8.938;2023-04-23T02:22:23;231.50;;;91.60;;
26690;SDS011;14307;51.718;8.938;2023-04-23T02:24:51;232.65;;;91.57;;
26690;SDS011;14307;51.718;8.938;2023-04-23T02:27:18;226.65;;;91.20;;
26690;SDS011;14307;51.718;8.938;2023-04-23T02:29:45;215.48;;;89.28;;
26690;SDS011;14307;51.718;8.938;2023-04-23T02:32:16;201.43;;;85.68;;
26690;SDS011;14307;51.718;8.938;2023-04-23T02:34:43;199.30;;;85.32;;
26690;SDS011;14307;51.718;8.938;2023-04-23T02:37:09;189.13;;;79.43;;
26690;SDS011;14307;51.718;8.938;2023-04-23T02:39:37;195.10;;;85.65;;
26690;SDS011;14307;51.718;8.938;2023-04-23T02:42:06;202.38;;;83.20;;
26690;SDS011;14307;51.718;8.938;2023-04-23T02:44:33;206.23;;;85.28;;
26690;SDS011;14307;51.718;8.938;2023-04-23T02:47:00;199.80;;;85.28;;
26690;SDS011;14307;51.718;8.938;2023-04-23T02:49:27;202.63;;;86.38;;
26690;SDS011;14307;51.718;8.938;2023-04-23T02:51:54;205.95;;;86.30;;
26690;SDS011;14307;51.718;8.938;2023-04-23T02:54:20;218.98;;;87.82;;
26690;SDS011;14307;51.718;8.938;2023-04-23T02:56:47;207.32;;;88.75;;
26690;SDS011;14307;51.718;8.938;2023-04-23T02:59:14;217.52;;;86.25;;
26690;SDS011;14307;51.718;8.938;2023-04-23T03:01:41;201.43;;;88.60;;
26690;SDS011;14307;51.718;8.938;2023-04-23T03:04:09;210.60;;;85.93;;
26690;SDS011;14307;51.718;8.938;2023-04-23T03:06:37;212.90;;;86.15;;
26690;SDS011;14307;51.718;8.938;2023-04-23T03:09:04;218.77;;;85.70;;
26690;SDS011;14307;51.718;8.938;2023-04-23T03:11:30;204.55;;;85.97;;
26690;SDS011;14307;51.718;8.938;2023-04-23T03:13:57;224.23;;;87.20;;
26690;SDS011;14307;51.718;8.938;2023-04-23T03:16:26;222.48;;;89.40;;
26690;SDS011;14307;51.718;8.938;2023-04-23T03:18:53;211.65;;;88.55;;
26690;SDS011;14307;51.718;8.938;2023-04-23T03:21:20;211.45;;;86.57;;
26690;SDS011;14307;51.718;8.938;2023-04-23T03:23:48;225.15;;;88.97;;
26690;SDS011;14307;51.718;8.938;2023-04-23T03:26:15;222.45;;;86.65;;
26690;SDS011;14307;51.718;8.938;2023-04-23T03:28:42;214.73;;;88.82;;
26690;SDS011;14307;51.718;8.938;2023-04-23T03:31:09;212.70;;;84.00;;
26690;SDS011;14307;51.718;8.938;2023-04-23T03:33:36;212.05;;;86.40;;
26690;SDS011;14307;51.718;8.938;2023-04-23T03:36:04;197.20;;;79.72;;
26690;SDS011;14307;51.718;8.938;2023-04-23T03:38:31;203.38;;;83.15;;
26690;SDS011;14307;51.718;8.938;2023-04-23T03:40:59;184.02;;;76.75;;
26690;SDS011;14307;51.718;8.938;2023-04-23T03:43:25;191.50;;;78.25;;
26690;SDS011;14307;51.718;8.938;2023-04-23T03:46:14;189.20;;;76.95;;
26690;SDS011;14307;51.718;8.938;2023-04-23T03:48:41;199.13;;;80.55;;
26690;SDS011;14307;51.718;8.938;2023-04-23T03:51:14;189.02;;;81.25;;
26690;SDS011;14307;51.718;8.938;2023-04-23T03:53:43;186.88;;;81.07;;
26690;SDS011;14307;51.718;8.938;2023-04-23T03:56:29;189.30;;;80.88;;
26690;SDS011;14307;51.718;8.938;2023-04-23T03:59:08;200.07;;;80.25;;
26690;SDS011;14307;51.718;8.938;2023-04-23T04:01:35;191.52;;;81.65;;
26690;SDS011;14307;51.718;8.938;2023-04-23T04:04:02;191.00;;;80.40;;
26690;SDS011;14307;51.718;8.938;2023-04-23T04:06:30;189.55;;;80.93;;
26690;SDS011;14307;51.718;8.938;2023-04-23T04:08:57;183.43;;;82.25;;
26690;SDS011;14307;51.718;8.938;2023-04-23T04:11:24;199.32;;;82.70;;
26690;SDS011;14307;51.718;8.938;2023-04-23T04:13:51;191.15;;;80.60;;
26690;SDS011;14307;51.718;8.938;2023-04-23T04:16:18;197.18;;;84.10;;
26690;SDS011;14307;51.718;8.938;2023-04-23T04:18:44;197.15;;;81.43;;
26690;SDS011;14307;51.718;8.938;2023-04-23T04:21:11;193.27;;;83.53;;
26690;SDS011;14307;51.718;8.938;2023-04-23T04:23:38;206.88;;;84.55;;
26690;SDS011;14307;51.718;8.938;2023-04-23T04:26:05;197.50;;;83.40;;
26690;SDS011;14307;51.718;8.938;2023-04-23T04:28:33;204.40;;;83.78;;
26690;SDS011;14307;51.718;8.938;2023-04-23T04:31:01;194.93;;;82.45;;
26690;SDS011;14307;51.718;8.938;2023-04-23T04:33:28;208.55;;;82.32;;
26690;SDS011;14307;51.718;8.938;2023-04-23T04:35:56;213.50;;;87.25;;
26690;SDS011;14307;51.718;8.938;2023-04-23T04:38:22;196.05;;;80.40;;
26690;SDS011;14307;51.718;8.938;2023-04-23T04:40:49;203.98;;;87.30;;
26690;SDS011;14307;51.718;8.938;2023-04-23T04:43:16;200.63;;;81.68;;
26690;SDS011;14307;51.718;8.938;2023-04-23T04:45:43;189.13;;;79.43;;
26690;SDS011;14307;51.718;8.938;2023-04-23T04:48:10;188.93;;;78.28;;
26690;SDS011;14307;51.718;8.938;2023-04-23T04:50:36;206.10;;;86.55;;
26690;SDS011;14307;51.718;8.938;2023-04-23T04:53:03;194.77;;;84.63;;
26690;SDS011;14307;51.718;8.938;2023-04-23T04:55:30;202.40;;;80.95;;
26690;SDS011;14307;51.718;8.938;2023-04-23T04:57:56;198.20;;;85.53;;
26690;SDS011;14307;51.718;8.938;2023-04-23T05:00:24;192.90;;;83.32;;
26690;SDS011;14307;51.718;8.938;2023-04-23T05:02:55;185.23;;;81.70;;
26690;SDS011;14307;51.718;8.938;2023-04-23T05:05:23;192.27;;;82.05;;
26690;SDS011;14307;51.718;8.938;2023-04-23T05:07:51;186.60;;;78.53;;
26690;SDS011;14307;51.718;8.938;2023-04-23T05:10:24;187.55;;;77.78;;
26690;SDS011;14307;51.718;8.938;2023-04-23T05:12:51;203.63;;;82.25;;
26690;SDS011;14307;51.718;8.938;2023-04-23T05:15:18;187.77;;;81.95;;
26690;SDS011;14307;51.718;8.938;2023-04-23T05:17:45;194.00;;;81.07;;
26690;SDS011;14307;51.718;8.938;2023-04-23T05:20:12;194.60;;;82.28;;
26690;SDS011;14307;51.718;8.938;2023-04-23T05:22:40;198.73;;;83.00;;
26690;SDS011;14307;51.718;8.938;2023-04-23T05:25:08;192.23;;;82.57;;
26690;SDS011;14307;51.718;8.938;2023-04-23T05:27:37;208.52;;;87.55;;
26690;SDS011;14307;51.718;8.938;2023-04-23T05:30:04;201.55;;;83.72;;
26690;SDS011;14307;51.718;8.938;2023-04-23T05:32:33;212.23;;;83.57;;
26690;SDS011;14307;51.718;8.938;2023-04-23T05:35:01;220.25;;;86.32;;
26690;SDS011;14307;51.718;8.938;2023-04-23T05:37:29;204.50;;;82.78;;
26690;SDS011;14307;51.718;8.938;2023-04-23T05:39:56;208.30;;;84.68;;
26690;SDS011;14307;51.718;8.938;2023-04-23T05:42:25;211.63;;;86.88;;
26690;SDS011;14307;51.718;8.938;2023-04-23T05:44:52;215.43;;;85.65;;
26690;SDS011;14307;51.718;8.938;2023-04-23T05:47:19;203.98;;;84.63;;
26690;SDS011;14307;51.718;8.938;2023-04-23T05:49:46;200.15;;;81.05;;
26690;SDS011;14307;51.718;8.938;2023-04-23T05:52:13;190.88;;;82.38;;
26690;SDS011;14307;51.718;8.938;2023-04-23T05:54:40;198.23;;;83.13;;
26690;SDS011;14307;51.718;8.938;2023-04-23T05:57:07;189.80;;;79.03;;
26690;SDS011;14307;51.718;8.938;2023-04-23T05:59:34;184.43;;;77.55;;
26690;SDS011;14307;51.718;8.938;2023-04-23T06:02:01;185.95;;;77.55;;
26690;SDS011;14307;51.718;8.938;2023-04-23T06:04:28;173.43;;;77.43;;
26690;SDS011;14307;51.718;8.938;2023-04-23T06:06:55;178.23;;;76.72;;
26690;SDS011;14307;51.718;8.938;2023-04-23T06:09:22;180.82;;;75.70;;
26690;SDS011;14307;51.718;8.938;2023-04-23T06:11:50;172.48;;;76.55;;
26690;SDS011;14307;51.718;8.938;2023-04-23T06:14:17;168.98;;;76.90;;
26690;SDS011;14307;51.718;8.938;2023-04-23T06:16:44;149.75;;;70.85;;
26690;SDS011;14307;51.718;8.938;2023-04-23T06:19:11;147.02;;;71.90;;
26690;SDS011;14307;51.718;8.938;2023-04-23T06:21:38;146.52;;;68.28;;
26690;SDS011;14307;51.718;8.938;2023-04-23T06:24:05;133.55;;;65.15;;
26690;SDS011;14307;51.718;8.938;2023-04-23T06:26:35;137.27;;;64.97;;
26690;SDS011;14307;51.718;8.938;2023-04-23T06:29:09;136.68;;;65.28;;
26690;SDS011;14307;51.718;8.938;2023-04-23T06:31:46;123.07;;;62.00;;
26690;SDS011;14307;51.718;8.938;2023-04-23T06:34:12;122.90;;;63.58;;
26690;SDS011;14307;51.718;8.938;2023-04-23T06:36:39;122.07;;;61.55;;
26690;SDS011;14307;51.718;8.938;2023-04-23T06:39:06;98.97;;;56.38;;
26690;SDS011;14307;51.718;8.938;2023-04-23T06:41:33;82.85;;;51.25;;
26690;SDS011;14307;51.718;8.938;2023-04-23T06:44:11;77.55;;;50.67;;
26690;SDS011;14307;51.718;8.938;2023-04-23T06:46:46;83.10;;;54.10;;
26690;SDS011;14307;51.718;8.938;2023-04-23T06:49:13;61.85;;;45.75;;
26690;SDS011;14307;51.718;8.938;2023-04-23T06:51:39;57.97;;;49.85;;
26690;SDS011;14307;51.718;8.938;2023-04-23T06:54:06;60.83;;;49.60;;
26690;SDS011;14307;51.718;8.938;2023-04-23T06:56:33;59.20;;;49.70;;
26690;SDS011;14307;51.718;8.938;2023-04-23T06:59:00;57.70;;;48.75;;
26690;SDS011;14307;51.718;8.938;2023-04-23T07:01:27;55.22;;;46.45;;
26690;SDS011;14307;51.718;8.938;2023-04-23T07:03:54;48.95;;;43.50;;
26690;SDS011;14307;51.718;8.938;2023-04-23T07:06:21;51.05;;;45.28;;
26690;SDS011;14307;51.718;8.938;2023-04-23T07:08:48;58.33;;;51.92;;
26690;SDS011;14307;51.718;8.938;2023-04-23T07:11:14;53.90;;;48.17;;
26690;SDS011;14307;51.718;8.938;2023-04-23T07:13:41;51.35;;;46.38;;
26690;SDS011;14307;51.718;8.938;2023-04-23T07:16:08;50.35;;;45.20;;
26690;SDS011;14307;51.718;8.938;2023-04-23T07:18:35;49.05;;;44.22;;
26690;SDS011;14307;51.718;8.938;2023-04-23T07:21:01;53.13;;;48.08;;
26690;SDS011;14307;51.718;8.938;2023-04-23T07:23:28;52.65;;;47.97;;
26690;SDS011;14307;51.718;8.938;2023-04-23T07:25:55;50.78;;;46.28;;
26690;SDS011;14307;51.718;8.938;2023-04-23T07:28:22;50.00;;;45.65;;
26690;SDS011;14307;51.718;8.938;2023-04-23T07:30:48;52.28;;;47.58;;
26690;SDS011;14307;51.718;8.938;2023-04-23T07:33:15;49.08;;;44.70;;
26690;SDS011;14307;51.718;8.938;2023-04-23T07:35:42;48.75;;;44.38;;
26690;SDS011;14307;51.718;8.938;2023-04-23T07:38:09;48.35;;;44.15;;
26690;SDS011;14307;51.718;8.938;2023-04-23T07:40:35;46.22;;;42.28;;
26690;SDS011;14307;51.718;8.938;2023-04-23T07:43:03;46.40;;;42.90;;
26690;SDS011;14307;51.718;8.938;2023-04-23T07:45:30;42.25;;;38.85;;
26690;SDS011;14307;51.718;8.938;2023-04-23T07:47:56;43.20;;;40.00;;
26690;SDS011;14307;51.718;8.938;2023-04-23T07:50:24;44.47;;;41.08;;
26690;SDS011;14307;51.718;8.938;2023-04-23T07:52:50;47.67;;;44.42;;
26690;SDS011;14307;51.718;8.938;2023-04-23T07:55:17;47.95;;;44.65;;
26690;SDS011;14307;51.718;8.938;2023-04-23T07:57:45;48.92;;;45.47;;
26690;SDS011;14307;51.718;8.938;2023-04-23T08:00:12;49.65;;;46.13;;
26690;SDS011;14307;51.718;8.938;2023-04-23T08:02:39;49.88;;;46.55;;
26690;SDS011;14307;51.718;8.938;2023-04-23T08:05:06;50.30;;;46.88;;
26690;SDS011;14307;51.718;8.938;2023-04-23T08:07:34;49.67;;;46.30;;
26690;SDS011;14307;51.718;8.938;2023-04-23T08:10:01;48.17;;;45.05;;
26690;SDS011;14307;51.718;8.938;2023-04-23T08:12:32;54.33;;;50.53;;
26690;SDS011;14307;51.718;8.938;2023-04-23T08:15:01;48.60;;;45.50;;
26690;SDS011;14307;51.718;8.938;2023-04-23T08:17:34;45.67;;;42.55;;
26690;SDS011;14307;51.718;8.938;2023-04-23T08:20:02;38.53;;;35.78;;
26690;SDS011;14307;51.718;8.938;2023-04-23T08:22:31;38.20;;;35.58;;
26690;SDS011;14307;51.718;8.938;2023-04-23T08:24:58;46.13;;;43.28;;
26690;SDS011;14307;51.718;8.938;2023-04-23T08:27:25;46.38;;;43.22;;
26690;SDS011;14307;51.718;8.938;2023-04-23T08:29:51;44.78;;;41.88;;
26690;SDS011;14307;51.718;8.938;2023-04-23T08:32:18;44.83;;;41.92;;
26690;SDS011;14307;51.718;8.938;2023-04-23T08:34:45;45.17;;;42.28;;
26690;SDS011;14307;51.718;8.938;2023-04-23T08:37:12;44.75;;;41.85;;
26690;SDS011;14307;51.718;8.938;2023-04-23T08:39:52;45.40;;;42.42;;
26690;SDS011;14307;51.718;8.938;2023-04-23T08:42:29;48.47;;;45.47;;
26690;SDS011;14307;51.718;8.938;2023-04-23T08:45:03;44.35;;;41.55;;
26690;SDS011;14307;51.718;8.938;2023-04-23T08:47:30;43.03;;;39.85;;
26690;SDS011;14307;51.718;8.938;2023-04-23T08:49:58;38.58;;;36.08;;
26690;SDS011;14307;51.718;8.938;2023-04-23T08:52:25;40.42;;;37.40;;
26690;SDS011;14307;51.718;8.938;2023-04-23T08:54:58;42.83;;;39.95;;
26690;SDS011;14307;51.718;8.938;2023-04-23T08:57:26;42.13;;;39.25;;
26690;SDS011;14307;51.718;8.938;2023-04-23T08:59:53;39.08;;;36.50;;
26690;SDS011;14307;51.718;8.938;2023-04-23T09:02:22;41.25;;;38.50;;
26690;SDS011;14307;51.718;8.938;2023-04-23T09:04:49;38.50;;;35.85;;
26690;SDS011;14307;51.718;8.938;2023-04-23T09:07:21;40.47;;;37.45;;
26690;SDS011;14307;51.718;8.938;2023-04-23T09:09:48;41.58;;;38.97;;
26690;SDS011;14307;51.718;8.938;2023-04-23T09:12:15;43.20;;;40.17;;
26690;SDS011;14307;51.718;8.938;2023-04-23T09:14:42;37.92;;;35.45;;
26690;SDS011;14307;51.718;8.938;2023-04-23T09:17:09;35.42;;;33.05;;
26690;SDS011;14307;51.718;8.938;2023-04-23T09:19:36;41.50;;;38.65;;
26690;SDS011;14307;51.718;8.938;2023-04-23T09:22:05;41.22;;;38.40;;
26690;SDS011;14307;51.718;8.938;2023-04-23T09:24:33;42.20;;;39.33;;
26690;SDS011;14307;51.718;8.938;2023-04-23T09:27:00;38.15;;;35.55;;
26690;SDS011;14307;51.718;8.938;2023-04-23T09:29:27;35.58;;;32.97;;
26690;SDS011;14307;51.718;8.938;2023-04-23T09:32:05;36.72;;;34.22;;
26690;SDS011;14307;51.718;8.938;2023-04-23T09:34:34;37.25;;;34.65;;
26690;SDS011;14307;51.718;8.938;2023-04-23T09:37:03;37.95;;;35.28;;
26690;SDS011;14307;51.718;8.938;2023-04-23T09:39:31;37.38;;;34.63;;
26690;SDS011;14307;51.718;8.938;2023-04-23T09:42:03;39.88;;;37.10;;
26690;SDS011;14307;51.718;8.938;2023-04-23T09:44:31;36.28;;;33.67;;
26690;SDS011;14307;51.718;8.938;2023-04-23T09:47:05;35.28;;;33.00;;
26690;SDS011;14307;51.718;8.938;2023-04-23T09:49:44;37.15;;;34.75;;
26690;SDS011;14307;51.718;8.938;2023-04-23T09:52:15;37.65;;;35.10;;
26690;SDS011;14307;51.718;8.938;2023-04-23T09:54:42;36.60;;;34.17;;
26690;SDS011;14307;51.718;8.938;2023-04-23T09:57:11;34.55;;;32.42;;
26690;SDS011;14307;51.718;8.938;2023-04-23T09:59:38;31.73;;;29.60;;
26690;SDS011;14307;51.718;8.938;2023-04-23T10:02:11;32.63;;;30.52;;
26690;SDS011;14307;51.718;8.938;2023-04-23T10:04:38;32.45;;;30.42;;
26690;SDS011;14307;51.718;8.938;2023-04-23T10:07:06;32.13;;;30.08;;
26690;SDS011;14307;51.718;8.938;2023-04-23T10:09:41;34.08;;;31.98;;
26690;SDS011;14307;51.718;8.938;2023-04-23T10:12:09;33.25;;;31.10;;
26690;SDS011;14307;51.718;8.938;2023-04-23T10:14:56;32.53;;;30.25;;
26690;SDS011;14307;51.718;8.938;2023-04-23T10:17:24;39.50;;;37.10;;
26690;SDS011;14307;51.718;8.938;2023-04-23T10:19:52;33.00;;;31.00;;
26690;SDS011;14307;51.718;8.938;2023-04-23T10:22:20;30.60;;;28.52;;
26690;SDS011;14307;51.718;8.938;2023-04-23T10:24:51;32.10;;;30.30;;
26690;SDS011;14307;51.718;8.938;2023-04-23T10:27:21;33.33;;;31.40;;
26690;SDS011;14307;51.718;8.938;2023-04-23T10:30:13;39.35;;;37.15;;
26690;SDS011;14307;51.718;8.938;2023-04-23T10:32:40;40.45;;;38.30;;
26690;SDS011;14307;51.718;8.938;2023-04-23T10:35:07;33.03;;;30.92;;
26690;SDS011;14307;51.718;8.938;2023-04-23T10:37:35;30.15;;;28.40;;
26690;SDS011;14307;51.718;8.938;2023-04-23T10:40:05;31.73;;;29.83;;
26690;SDS011;14307;51.718;8.938;2023-04-23T10:42:37;35.60;;;33.50;;
26690;SDS011;14307;51.718;8.938;2023-04-23T10:45:12;31.33;;;28.88;;
26690;SDS011;14307;51.718;8.938;2023-04-23T10:52:52;32.35;;;30.45;;
26690;SDS011;14307;51.718;8.938;2023-04-23T10:55:21;32.63;;;30.70;;
26690;SDS011;14307;51.718;8.938;2023-04-23T11:00:27;34.33;;;32.17;;
26690;SDS011;14307;51.718;8.938;2023-04-23T11:02:54;31.67;;;29.50;;
26690;SDS011;14307;51.718;8.938;2023-04-23T11:05:21;32.03;;;30.08;;
26690;SDS011;14307;51.718;8.938;2023-04-23T11:08:03;32.95;;;30.85;;
26690;SDS011;14307;51.718;8.938;2023-04-23T11:10:54;33.00;;;30.90;;
26690;SDS011;14307;51.718;8.938;2023-04-23T11:13:26;33.70;;;31.70;;
26690;SDS011;14307;51.718;8.938;2023-04-23T11:22:19;35.67;;;33.75;;
26690;SDS011;14307;51.718;8.938;2023-04-23T11:24:27;30.58;;;28.73;;
26690;SDS011;14307;51.718;8.938;2023-04-23T11:26:55;32.85;;;30.95;;
26690;SDS011;14307;51.718;8.938;2023-04-23T11:29:22;33.75;;;31.75;;
26690;SDS011;14307;51.718;8.938;2023-04-23T11:31:50;32.17;;;29.67;;
26690;SDS011;14307;51.718;8.938;2023-04-23T11:34:21;34.42;;;32.55;;
26690;SDS011;14307;51.718;8.938;2023-04-23T11:36:50;37.55;;;35.55;;
26690;SDS011;14307;51.718;8.938;2023-04-23T11:39:22;34.55;;;32.83;;
26690;SDS011;14307;51.718;8.938;2023-04-23T11:41:52;35.60;;;33.63;;
26690;SDS011;14307;51.718;8.938;2023-04-23T11:44:20;37.72;;;35.13;;
26690;SDS011;14307;51.718;8.938;2023-04-23T11:46:47;35.55;;;33.65;;
26690;SDS011;14307;51.718;8.938;2023-04-23T11:49:15;33.42;;;31.73;;
26690;SDS011;14307;51.718;8.938;2023-04-23T11:51:44;32.13;;;30.23;;
26690;SDS011;14307;51.718;8.938;2023-04-23T11:54:12;30.90;;;29.10;;
26690;SDS011;14307;51.718;8.938;2023-04-23T11:56:39;28.88;;;27.10;;
26690;SDS011;14307;51.718;8.938;2023-04-23T11:59:07;33.33;;;31.38;;
26690;SDS011;14307;51.718;8.938;2023-04-23T12:04:15;35.10;;;32.90;;
26690;SDS011;14307;51.718;8.938;2023-04-23T12:06:47;35.33;;;33.33;;
26690;SDS011;14307;51.718;8.938;2023-04-23T12:09:15;36.40;;;34.40;;
26690;SDS011;14307;51.718;8.938;2023-04-23T12:11:44;37.92;;;35.83;;
26690;SDS011;14307;51.718;8.938;2023-04-23T12:14:12;35.80;;;33.80;;
26690;SDS011;14307;51.718;8.938;2023-04-23T12:16:41;28.77;;;27.05;;
26690;SDS011;14307;51.718;8.938;2023-04-23T12:19:11;32.63;;;30.42;;
26690;SDS011;14307;51.718;8.938;2023-04-23T12:21:49;32.65;;;30.55;;
26690;SDS011;14307;51.718;8.938;2023-04-23T12:24:22;33.30;;;31.40;;
26690;SDS011;14307;51.718;8.938;2023-04-23T12:26:55;34.33;;;32.53;;
26690;SDS011;14307;51.718;8.938;2023-04-23T12:29:25;35.78;;;33.90;;
26690;SDS011;14307;51.718;8.938;2023-04-23T12:31:56;34.83;;;32.80;;
26690;SDS011;14307;51.718;8.938;2023-04-23T12:34:24;35.67;;;33.78;;
26690;SDS011;14307;51.718;8.938;2023-04-23T12:36:52;33.75;;;31.85;;
26690;SDS011;14307;51.718;8.938;2023-04-23T12:39:25;35.50;;;33.08;;
26690;SDS011;14307;51.718;8.938;2023-04-23T12:42:02;33.90;;;32.00;;
26690;SDS011;14307;51.718;8.938;2023-04-23T12:44:36;30.48;;;28.67;;
26690;SDS011;14307;51.718;8.938;2023-04-23T12:47:04;25.95;;;24.52;;
26690;SDS011;14307;51.718;8.938;2023-04-23T12:49:33;26.52;;;25.23;;
26690;SDS011;14307;51.718;8.938;2023-04-23T12:52:02;23.63;;;22.00;;
26690;SDS011;14307;51.718;8.938;2023-04-23T12:54:33;24.02;;;22.63;;
26690;SDS011;14307;51.718;8.938;2023-04-23T12:57:05;30.75;;;29.05;;
26690;SDS011;14307;51.718;8.938;2023-04-23T12:59:33;31.27;;;29.48;;
26690;SDS011;14307;51.718;8.938;2023-04-23T13:02:00;33.20;;;31.40;;
26690;SDS011;14307;51.718;8.938;2023-04-23T13:04:28;34.22;;;32.22;;
26690;SDS011;14307;51.718;8.938;2023-04-23T13:06:56;31.13;;;29.52;;
26690;SDS011;14307;51.718;8.938;2023-04-23T13:09:23;33.25;;;31.15;;
26690;SDS011;14307;51.718;8.938;2023-04-23T13:11:52;33.08;;;31.42;;
26690;SDS011;14307;51.718;8.938;2023-04-23T13:14:19;32.75;;;30.73;;
26690;SDS011;14307;51.718;8.938;2023-04-23T13:16:46;33.10;;;31.48;;
26690;SDS011;14307;51.718;8.938;2023-04-23T13:19:14;33.50;;;31.70;;
26690;SDS011;14307;51.718;8.938;2023-04-23T13:21:42;33.25;;;31.35;;
26690;SDS011;14307;51.718;8.938;2023-04-23T13:24:09;33.80;;;32.08;;
26690;SDS011;14307;51.718;8.938;2023-04-23T13:26:37;34.00;;;32.22;;
26690;SDS011;14307;51.718;8.938;2023-04-23T13:29:04;33.10;;;31.40;;
26690;SDS011;14307;51.718;8.938;2023-04-23T13:31:31;34.63;;;32.75;;
26690;SDS011;14307;51.718;8.938;2023-04-23T13:33:58;32.50;;;30.98;;
26690;SDS011;14307;51.718;8.938;2023-04-23T13:36:26;32.55;;;30.92;;
26690;SDS011;14307;51.718;8.938;2023-04-23T13:38:53;32.80;;;31.15;;
26690;SDS011;14307;51.718;8.938;2023-04-23T13:41:20;33.63;;;31.83;;
26690;SDS011;14307;51.718;8.938;2023-04-23T13:43:46;34.92;;;33.22;;
26690;SDS011;14307;51.718;8.938;2023-04-23T13:46:13;33.95;;;31.92;;
26690;SDS011;14307;51.718;8.938;2023-04-23T13:48:40;33.10;;;31.33;;
26690;SDS011;14307;51.718;8.938;2023-04-23T13:51:07;35.15;;;33.35;;
26690;SDS011;14307;51.718;8.938;2023-04-23T13:53:51;34.47;;;32.67;;
26690;SDS011;14307;51.718;8.938;2023-04-23T13:56:19;35.67;;;33.88;;
26690;SDS011;14307;51.718;8.938;2023-04-23T13:58:45;35.50;;;33.60;;
26690;SDS011;14307;51.718;8.938;2023-04-23T14:01:13;31.67;;;29.98;;
26690;SDS011;14307;51.718;8.938;2023-04-23T14:03:40;32.78;;;30.92;;
26690;SDS011;14307;51.718;8.938;2023-04-23T14:06:07;34.10;;;32.20;;
26690;SDS011;14307;51.718;8.938;2023-04-23T14:08:34;35.65;;;33.42;;
26690;SDS011;14307;51.718;8.938;2023-04-23T14:11:02;34.40;;;32.53;;
26690;SDS011;14307;51.718;8.938;2023-04-23T14:13:29;32.03;;;30.20;;
26690;SDS011;14307;51.718;8.938;2023-04-23T14:15:57;32.35;;;30.65;;
26690;SDS011;14307;51.718;8.938;2023-04-23T14:18:27;32.22;;;30.42;;
26690;SDS011;14307;51.718;8.938;2023-04-23T14:20:53;33.58;;;31.77;;
26690;SDS011;14307;51.718;8.938;2023-04-23T14:26:02;33.55;;;31.85;;
26690;SDS011;14307;51.718;8.938;2023-04-23T14:28:34;34.08;;;32.15;;
26690;SDS011;14307;51.718;8.938;2023-04-23T14:31:05;33.35;;;31.45;;
26690;SDS011;14307;51.718;8.938;2023-04-23T14:33:32;34.50;;;32.58;;
26690;SDS011;14307;51.718;8.938;2023-04-23T14:35:59;34.03;;;32.42;;
26690;SDS011;14307;51.718;8.938;2023-04-23T14:38:26;32.45;;;30.83;;
26690;SDS011;14307;51.718;8.938;2023-04-23T14:40:53;27.17;;;25.80;;
26690;SDS011;14307;51.718;8.938;2023-04-23T14:43:20;29.48;;;27.98;;
26690;SDS011;14307;51.718;8.938;2023-04-23T14:45:47;27.30;;;25.92;;